createdAt,value
2019-02-26T00:00:14.415Z,74.19
2019-02-26T00:01:14.444Z,74.81
2019-02-26T00:02:12.087Z,74.33
2019-02-26T00:03:11.059Z,74.74
2019-02-26T00:04:11.046Z,74.84
2019-02-26T00:05:11.039Z,74.95
2019-02-26T00:06:11.025Z,75.46
2019-02-26T00:07:14.264Z,75.05
2019-02-26T00:08:12.011Z,75.26
2019-02-26T00:09:10.992Z,75.15
2019-02-26T00:10:10.978Z,75.26
2019-02-26T00:11:10.970Z,75.26
2019-02-26T00:12:10.976Z,75.15
2019-02-26T00:13:10.948Z,75.57
2019-02-26T00:14:15.494Z,75.98
2019-02-26T00:15:11.922Z,75.91
2019-02-26T00:16:12.859Z,76.08
2019-02-26T00:17:12.912Z,76.22
2019-02-26T00:18:11.787Z,76.22
2019-02-26T00:19:11.943Z,76.73
2019-02-26T00:20:12.692Z,76.53
2019-02-26T00:21:10.855Z,76.84
2019-02-26T00:22:12.153Z,76.64
2019-02-26T00:23:10.830Z,76.73
2019-02-26T00:24:12.801Z,76.73
2019-02-26T00:25:12.648Z,76.22
2019-02-26T00:26:12.684Z,76.53
2019-02-26T00:27:10.803Z,76.84
2019-02-26T00:28:11.147Z,76.73
2019-02-26T00:29:10.762Z,76.73
2019-02-26T00:30:11.388Z,76.73
2019-02-26T00:31:10.741Z,76.87
2019-02-26T00:32:12.240Z,76.77
2019-02-26T00:33:10.720Z,76.98
2019-02-26T00:34:13.292Z,77.29
2019-02-26T00:35:10.698Z,77.19
2019-02-26T00:36:11.199Z,77.25
2019-02-26T00:37:10.691Z,77.25
2019-02-26T00:38:11.647Z,76.67
2019-02-26T00:39:10.653Z,77.19
2019-02-26T00:40:12.374Z,77.19
2019-02-26T00:41:10.628Z,77.08
2019-02-26T00:42:10.638Z,77.50
2019-02-26T00:43:10.607Z,77.29
2019-02-26T00:44:10.592Z,77.19
2019-02-26T00:45:10.582Z,77.29
2019-02-26T00:46:10.570Z,77.39
2019-02-26T00:47:10.569Z,77.39
2019-02-26T00:48:10.601Z,77.43
2019-02-26T00:49:10.546Z,77.43
2019-02-26T00:50:11.916Z,77.01
2019-02-26T00:51:10.515Z,77.39
2019-02-26T00:52:11.508Z,76.91
2019-02-26T00:53:10.508Z,76.70
2019-02-26T00:54:10.479Z,77.53
2019-02-26T00:55:10.469Z,77.19
2019-02-26T00:56:10.456Z,77.70
2019-02-26T00:57:11.516Z,77.33
2019-02-26T00:58:10.761Z,77.53
2019-02-26T00:59:10.421Z,77.01
2019-02-26T01:00:11.837Z,77.12
2019-02-26T01:01:12.382Z,77.43
2019-02-26T01:02:10.387Z,77.64
2019-02-26T01:03:17.482Z,77.64
2019-02-26T01:04:10.368Z,77.43
2019-02-26T01:05:11.322Z,77.64
2019-02-26T01:06:10.343Z,77.74
2019-02-26T01:07:10.334Z,77.74
2019-02-26T01:08:12.827Z,77.84
2019-02-26T01:09:11.230Z,78.05
2019-02-26T01:10:11.630Z,77.64
2019-02-26T01:11:10.286Z,77.53
2019-02-26T01:12:11.805Z,77.43
2019-02-26T01:13:10.266Z,77.39
2019-02-26T01:14:10.276Z,77.43
2019-02-26T01:15:11.588Z,77.29
2019-02-26T01:16:10.252Z,77.50
2019-02-26T01:17:11.966Z,77.22
2019-02-26T01:18:10.221Z,77.08
2019-02-26T01:19:10.919Z,77.29
2019-02-26T01:20:10.203Z,77.74
2019-02-26T01:21:10.196Z,77.43
2019-02-26T01:22:10.159Z,77.43
2019-02-26T01:23:10.149Z,77.33
2019-02-26T01:24:10.139Z,77.64
2019-02-26T01:25:12.180Z,77.84
2019-02-26T01:26:12.113Z,77.94
2019-02-26T01:27:10.108Z,78.08
2019-02-26T01:28:13.954Z,78.39
2019-02-26T01:29:10.083Z,78.67
2019-02-26T01:30:10.088Z,78.39
2019-02-26T01:31:10.058Z,78.05
2019-02-26T01:32:13.205Z,78.15
2019-02-26T01:33:10.034Z,77.94
2019-02-26T01:34:12.014Z,78.15
2019-02-26T01:35:11.232Z,77.94
2019-02-26T01:36:10.004Z,78.39
2019-02-26T01:37:11.766Z,78.46
2019-02-26T01:38:09.978Z,78.50
2019-02-26T01:39:11.619Z,78.50
2019-02-26T01:40:12.898Z,78.70
2019-02-26T01:41:11.344Z,79.02
2019-02-26T01:42:10.684Z,78.60
2019-02-26T01:43:09.921Z,78.70
2019-02-26T01:44:09.920Z,78.74
2019-02-26T01:45:09.925Z,78.81
2019-02-26T01:46:11.701Z,78.60
2019-02-26T01:47:09.876Z,78.50
2019-02-26T01:48:11.509Z,78.70
2019-02-26T01:49:10.854Z,78.91
2019-02-26T01:50:11.108Z,78.81
2019-02-26T01:51:09.835Z,78.39
2019-02-26T01:52:10.710Z,78.50
2019-02-26T01:53:09.806Z,78.39
2019-02-26T01:54:10.340Z,78.60
2019-02-26T01:55:09.805Z,78.81
2019-02-26T01:56:09.775Z,78.29
2019-02-26T01:57:09.761Z,78.64
2019-02-26T01:58:09.752Z,78.39
2019-02-26T01:59:09.738Z,78.81
2019-02-26T02:00:09.728Z,78.74
2019-02-26T02:01:12.015Z,78.74
2019-02-26T02:02:12.178Z,79.16
2019-02-26T02:03:09.693Z,78.74
2019-02-26T02:04:11.073Z,78.95
2019-02-26T02:05:09.671Z,79.98
2019-02-26T02:06:11.772Z,79.57
2019-02-26T02:07:09.652Z,78.74
2019-02-26T02:08:13.058Z,78.95
2019-02-26T02:09:13.426Z,79.88
2019-02-26T02:10:09.614Z,79.98
2019-02-26T02:11:09.682Z,79.88
2019-02-26T02:12:11.045Z,79.57
2019-02-26T02:13:10.993Z,79.57
2019-02-26T02:14:10.435Z,79.16
2019-02-26T02:15:10.129Z,79.16
2019-02-26T02:16:09.567Z,79.36
2019-02-26T02:17:10.889Z,79.36
2019-02-26T02:18:09.522Z,79.81
2019-02-26T02:19:09.513Z,79.77
2019-02-26T02:20:10.998Z,79.47
2019-02-26T02:21:09.486Z,79.77
2019-02-26T02:22:10.063Z,79.88
2019-02-26T02:23:09.481Z,79.81
2019-02-26T02:24:12.597Z,79.81
2019-02-26T02:25:09.445Z,79.60
2019-02-26T02:26:11.182Z,79.88
2019-02-26T02:27:09.441Z,80.43
2019-02-26T02:28:09.409Z,79.40
2019-02-26T02:29:12.663Z,80.33
2019-02-26T02:30:14.387Z,79.81
2019-02-26T02:31:10.375Z,80.02
2019-02-26T02:32:09.386Z,80.85
2019-02-26T02:33:09.356Z,80.12
2019-02-26T02:34:09.341Z,80.43
2019-02-26T02:35:10.120Z,80.19
2019-02-26T02:36:11.493Z,80.02
2019-02-26T02:37:09.307Z,79.47
2019-02-26T02:38:09.324Z,79.71
2019-02-26T02:39:13.011Z,79.81
2019-02-26T02:40:10.273Z,79.81
2019-02-26T02:41:09.266Z,79.81
2019-02-26T02:42:10.978Z,79.19
2019-02-26T02:43:10.063Z,79.81
2019-02-26T02:44:12.310Z,79.60
2019-02-26T02:45:11.311Z,80.12
2019-02-26T02:46:09.207Z,80.43
2019-02-26T02:47:11.179Z,81.26
2019-02-26T02:48:11.599Z,80.02
2019-02-26T02:49:09.828Z,79.60
2019-02-26T02:50:11.492Z,79.26
2019-02-26T02:51:13.169Z,79.16
2019-02-26T02:52:11.619Z,79.60
2019-02-26T02:53:09.155Z,79.60
2019-02-26T02:54:11.894Z,79.50
2019-02-26T02:55:10.549Z,79.88
2019-02-26T02:56:10.566Z,79.50
2019-02-26T02:57:10.043Z,79.36
2019-02-26T02:58:09.088Z,79.16
2019-02-26T02:59:11.150Z,79.30
2019-02-26T03:00:09.054Z,79.60
2019-02-26T03:01:09.033Z,79.60
2019-02-26T03:02:09.903Z,79.60
2019-02-26T03:03:09.031Z,80.54
2019-02-26T03:04:09.002Z,81.30
2019-02-26T03:05:08.988Z,80.57
2019-02-26T03:06:09.682Z,80.88
2019-02-26T03:07:08.969Z,80.99
2019-02-26T03:08:10.766Z,80.99
2019-02-26T03:09:09.768Z,80.78
2019-02-26T03:10:10.228Z,81.09
2019-02-26T03:11:08.919Z,80.68
2019-02-26T03:12:08.912Z,81.30
2019-02-26T03:13:08.918Z,80.61
2019-02-26T03:14:10.862Z,80.68
2019-02-26T03:15:10.027Z,81.23
2019-02-26T03:16:08.864Z,81.09
2019-02-26T03:17:10.812Z,81.20
2019-02-26T03:18:11.785Z,80.88
2019-02-26T03:19:09.686Z,80.99
2019-02-26T03:20:10.101Z,81.20
2019-02-26T03:21:08.807Z,81.23
2019-02-26T03:22:09.779Z,80.99
2019-02-26T03:23:11.913Z,81.20
2019-02-26T03:24:10.529Z,80.88
2019-02-26T03:25:08.763Z,80.71
2019-02-26T03:26:12.560Z,80.47
2019-02-26T03:27:08.741Z,80.78
2019-02-26T03:28:08.728Z,80.88
2019-02-26T03:29:08.733Z,80.99
2019-02-26T03:30:08.708Z,80.88
2019-02-26T03:31:08.694Z,80.71
2019-02-26T03:32:08.685Z,81.34
2019-02-26T03:33:08.683Z,81.13
2019-02-26T03:34:14.241Z,81.09
2019-02-26T03:35:10.753Z,80.99
2019-02-26T03:36:11.030Z,81.16
2019-02-26T03:37:10.777Z,80.64
2019-02-26T03:38:08.617Z,80.47
2019-02-26T03:39:08.622Z,80.57
2019-02-26T03:40:08.646Z,80.05
2019-02-26T03:41:08.582Z,80.26
2019-02-26T03:42:10.479Z,80.99
2019-02-26T03:43:10.880Z,81.20
2019-02-26T03:44:08.836Z,80.78
2019-02-26T03:45:08.536Z,80.51
2019-02-26T03:46:08.524Z,80.88
2019-02-26T03:47:08.515Z,81.34
2019-02-26T03:48:08.500Z,81.34
2019-02-26T03:49:08.518Z,81.65
2019-02-26T03:50:09.407Z,81.75
2019-02-26T03:51:08.469Z,81.44
2019-02-26T03:52:08.456Z,81.13
2019-02-26T03:53:09.939Z,81.54
2019-02-26T03:54:08.453Z,81.13
2019-02-26T03:55:09.433Z,81.54
2019-02-26T03:56:11.726Z,81.23
2019-02-26T03:57:11.349Z,81.13
2019-02-26T03:58:08.389Z,80.78
2019-02-26T03:59:09.522Z,80.78
2019-02-26T04:00:09.224Z,80.88
2019-02-26T04:01:10.248Z,80.71
2019-02-26T04:02:09.356Z,80.78
2019-02-26T04:03:09.329Z,80.68
2019-02-26T04:04:08.345Z,81.23
2019-02-26T04:05:08.957Z,81.02
2019-02-26T04:06:10.022Z,81.13
2019-02-26T04:07:10.601Z,80.61
2019-02-26T04:08:08.277Z,80.92
2019-02-26T04:09:09.132Z,81.34
2019-02-26T04:10:08.253Z,81.02
2019-02-26T04:11:08.242Z,81.37
2019-02-26T04:12:10.362Z,81.58
2019-02-26T04:13:08.218Z,81.48
2019-02-26T04:14:12.157Z,82.62
2019-02-26T04:15:08.198Z,82.72
2019-02-26T04:16:08.186Z,82.62
2019-02-26T04:17:08.989Z,82.55
2019-02-26T04:18:08.160Z,83.17
2019-02-26T04:19:08.910Z,83.14
2019-02-26T04:20:08.142Z,83.24
2019-02-26T04:21:09.346Z,83.17
2019-02-26T04:22:08.119Z,83.38
2019-02-26T04:23:08.988Z,83.38
2019-02-26T04:24:08.581Z,83.07
2019-02-26T04:25:09.259Z,83.90
2019-02-26T04:26:08.072Z,84.42
2019-02-26T04:27:08.059Z,84.21
2019-02-26T04:28:10.833Z,84.00
2019-02-26T04:29:08.056Z,83.90
2019-02-26T04:30:08.207Z,83.38
2019-02-26T04:31:08.014Z,83.59
2019-02-26T04:32:09.147Z,83.90
2019-02-26T04:33:09.593Z,84.00
2019-02-26T04:34:08.558Z,83.69
2019-02-26T04:35:07.988Z,84.11
2019-02-26T04:36:09.763Z,84.11
2019-02-26T04:37:10.076Z,83.80
2019-02-26T04:38:07.933Z,83.90
2019-02-26T04:39:10.859Z,83.28
2019-02-26T04:40:11.904Z,83.28
2019-02-26T04:41:11.964Z,83.17
2019-02-26T04:42:09.381Z,83.28
2019-02-26T04:43:10.315Z,82.90
2019-02-26T04:44:07.879Z,82.97
2019-02-26T04:45:08.932Z,83.17
2019-02-26T04:46:08.492Z,82.55
2019-02-26T04:47:07.831Z,83.69
2019-02-26T04:48:07.819Z,83.90
2019-02-26T04:49:07.809Z,83.90
2019-02-26T04:50:08.976Z,84.00
2019-02-26T04:51:07.786Z,83.90
2019-02-26T04:52:10.720Z,83.38
2019-02-26T04:53:08.934Z,83.48
2019-02-26T04:54:07.750Z,83.38
2019-02-26T04:55:07.760Z,82.76
2019-02-26T04:56:12.268Z,83.07
2019-02-26T04:57:08.728Z,82.86
2019-02-26T04:58:08.693Z,82.76
2019-02-26T04:59:09.375Z,83.38
2019-02-26T05:00:10.266Z,83.28
2019-02-26T05:01:09.901Z,83.17
2019-02-26T05:02:07.659Z,83.28
2019-02-26T05:03:10.541Z,83.80
2019-02-26T05:04:07.637Z,83.80
2019-02-26T05:05:07.644Z,83.80
2019-02-26T05:06:08.447Z,83.59
2019-02-26T05:07:10.368Z,84.11
2019-02-26T05:08:10.506Z,83.80
2019-02-26T05:09:08.082Z,83.28
2019-02-26T05:10:07.587Z,83.59
2019-02-26T05:11:07.556Z,83.11
2019-02-26T05:12:07.546Z,83.22
2019-02-26T05:13:09.706Z,83.32
2019-02-26T05:14:09.129Z,84.88
2019-02-26T05:15:11.518Z,85.43
2019-02-26T05:16:08.515Z,85.74
2019-02-26T05:17:07.488Z,85.19
2019-02-26T05:18:07.476Z,85.22
2019-02-26T05:19:07.464Z,85.39
2019-02-26T05:20:10.611Z,85.08
2019-02-26T05:21:10.823Z,85.08
2019-02-26T05:22:07.436Z,84.98
2019-02-26T05:23:07.419Z,84.94
2019-02-26T05:24:07.407Z,84.63
2019-02-26T05:25:10.533Z,84.21
2019-02-26T05:26:11.649Z,84.63
2019-02-26T05:27:10.181Z,83.90
2019-02-26T05:28:11.417Z,84.00
2019-02-26T05:29:07.351Z,83.90
2019-02-26T05:30:09.421Z,83.84
2019-02-26T05:31:09.031Z,83.90
2019-02-26T05:32:09.308Z,84.52
2019-02-26T05:33:07.310Z,84.21
2019-02-26T05:34:07.294Z,83.90
2019-02-26T05:35:07.292Z,84.25
2019-02-26T05:36:09.433Z,83.90
2019-02-26T05:37:08.015Z,83.69
2019-02-26T05:38:09.528Z,84.25
2019-02-26T05:39:07.237Z,84.15
2019-02-26T05:40:12.168Z,83.69
2019-02-26T05:41:08.270Z,83.90
2019-02-26T05:42:07.203Z,84.15
2019-02-26T05:43:07.196Z,84.00
2019-02-26T05:44:10.268Z,83.73
2019-02-26T05:45:09.358Z,83.84
2019-02-26T05:46:07.177Z,83.53
2019-02-26T05:47:07.146Z,83.53
2019-02-26T05:48:07.140Z,84.19
2019-02-26T05:49:10.600Z,85.12
2019-02-26T05:50:12.413Z,84.81
2019-02-26T05:51:10.870Z,84.91
2019-02-26T05:52:07.245Z,85.33
2019-02-26T05:53:07.629Z,85.85
2019-02-26T05:54:08.041Z,85.68
2019-02-26T05:55:07.055Z,85.74
2019-02-26T05:56:08.950Z,85.43
2019-02-26T05:57:10.882Z,85.85
2019-02-26T05:58:10.078Z,85.53
2019-02-26T05:59:09.438Z,85.71
2019-02-26T06:00:08.408Z,84.77
2019-02-26T06:01:07.007Z,84.56
2019-02-26T06:02:06.976Z,84.56
2019-02-26T06:03:09.601Z,84.67
2019-02-26T06:04:09.470Z,84.56
2019-02-26T06:05:06.943Z,84.15
2019-02-26T06:06:06.952Z,84.56
2019-02-26T06:07:06.926Z,84.36
2019-02-26T06:08:06.913Z,84.25
2019-02-26T06:09:07.761Z,84.15
2019-02-26T06:10:06.889Z,85.35
2019-02-26T06:11:06.896Z,85.63
2019-02-26T06:12:06.862Z,83.75
2019-02-26T06:13:07.642Z,80.36
2019-02-26T06:14:09.648Z,80.61
2019-02-26T06:15:08.422Z,80.65
2019-02-26T06:16:07.544Z,81.58
2019-02-26T06:17:07.269Z,82.55
2019-02-26T06:18:06.793Z,82.97
2019-02-26T06:19:08.528Z,83.07
2019-02-26T06:20:08.137Z,83.38
2019-02-26T06:21:06.780Z,83.38
2019-02-26T06:22:08.928Z,83.80
2019-02-26T06:23:07.740Z,83.59
2019-02-26T06:24:06.732Z,83.69
2019-02-26T06:25:12.406Z,85.25
2019-02-26T06:26:13.253Z,84.59
2019-02-26T06:27:10.822Z,83.03
2019-02-26T06:28:12.087Z,82.31
2019-02-26T06:29:06.671Z,82.55
2019-02-26T06:30:09.309Z,82.86
2019-02-26T06:31:06.665Z,83.17
2019-02-26T06:32:07.739Z,83.07
2019-02-26T06:33:08.978Z,83.38
2019-02-26T06:34:08.793Z,83.38
2019-02-26T06:35:08.411Z,83.73
2019-02-26T06:36:06.611Z,83.84
2019-02-26T06:37:07.173Z,84.46
2019-02-26T06:38:08.981Z,84.94
2019-02-26T06:39:06.557Z,84.98
2019-02-26T06:40:07.486Z,84.77
2019-02-26T06:41:06.552Z,85.04
2019-02-26T06:42:07.567Z,84.73
2019-02-26T06:43:06.511Z,84.42
2019-02-26T06:44:06.502Z,84.42
2019-02-26T06:45:08.341Z,83.80
2019-02-26T06:46:09.257Z,83.55
2019-02-26T06:47:09.093Z,83.17
2019-02-26T06:48:06.454Z,84.11
2019-02-26T06:49:06.444Z,83.90
2019-02-26T06:50:08.188Z,83.69
2019-02-26T06:51:07.181Z,83.90
2019-02-26T06:52:08.245Z,83.69
2019-02-26T06:53:08.378Z,83.65
2019-02-26T06:54:06.387Z,83.69
2019-02-26T06:55:07.776Z,85.11
2019-02-26T06:56:06.363Z,84.59
2019-02-26T06:57:06.371Z,82.79
2019-02-26T06:58:06.341Z,82.79
2019-02-26T06:59:07.501Z,82.93
2019-02-26T07:00:06.325Z,82.72
2019-02-26T07:01:07.642Z,82.62
2019-02-26T07:02:06.323Z,82.37
2019-02-26T07:03:06.285Z,82.41
2019-02-26T07:04:06.273Z,82.51
2019-02-26T07:05:06.261Z,82.31
2019-02-26T07:06:06.257Z,82.41
2019-02-26T07:07:07.397Z,82.72
2019-02-26T07:08:06.642Z,82.72
2019-02-26T07:09:06.216Z,82.51
2019-02-26T07:10:06.206Z,82.79
2019-02-26T07:11:07.319Z,82.48
2019-02-26T07:12:06.207Z,82.82
2019-02-26T07:13:08.877Z,82.68
2019-02-26T07:14:07.966Z,82.68
2019-02-26T07:15:06.147Z,82.48
2019-02-26T07:16:06.137Z,82.06
2019-02-26T07:17:06.126Z,82.34
2019-02-26T07:18:09.096Z,82.75
2019-02-26T07:19:06.531Z,81.05
2019-02-26T07:20:06.090Z,81.16
2019-02-26T07:21:06.080Z,80.68
2019-02-26T07:22:08.310Z,80.12
2019-02-26T07:23:07.778Z,79.57
2019-02-26T07:24:07.697Z,78.29
2019-02-26T07:25:08.167Z,77.74
2019-02-26T07:26:06.023Z,77.12
2019-02-26T07:27:06.661Z,76.60
2019-02-26T07:28:06.019Z,76.05
2019-02-26T07:29:07.633Z,75.19
2019-02-26T07:30:05.978Z,74.77
2019-02-26T07:31:07.944Z,74.26
2019-02-26T07:32:05.955Z,74.26
2019-02-26T07:33:08.165Z,75.19
2019-02-26T07:34:05.932Z,75.39
2019-02-26T07:35:06.902Z,75.22
2019-02-26T07:36:05.905Z,75.43
2019-02-26T07:37:06.511Z,75.95
2019-02-26T07:38:05.901Z,76.81
2019-02-26T07:39:05.874Z,76.39
2019-02-26T07:40:08.283Z,77.33
2019-02-26T07:41:06.223Z,77.22
2019-02-26T07:42:07.373Z,77.33
2019-02-26T07:43:09.122Z,76.70
2019-02-26T07:44:09.023Z,76.50
2019-02-26T07:45:14.599Z,76.87
2019-02-26T07:46:06.788Z,76.12
2019-02-26T07:47:06.643Z,74.74
2019-02-26T07:48:05.787Z,73.05
2019-02-26T07:49:07.415Z,69.84
2019-02-26T07:50:06.779Z,66.63
2019-02-26T07:51:05.734Z,63.02
2019-02-26T07:52:06.888Z,60.50
2019-02-26T07:53:05.735Z,58.91
2019-02-26T07:54:05.700Z,57.53
2019-02-26T07:55:06.257Z,57.17
2019-02-26T07:56:06.715Z,55.56
2019-02-26T07:57:05.690Z,52.53
2019-02-26T07:58:06.213Z,51.36
2019-02-26T07:59:07.845Z,49.95
2019-02-26T08:00:05.628Z,48.18
2019-02-26T08:01:05.645Z,46.43
2019-02-26T08:02:06.357Z,45.87
2019-02-26T08:03:05.595Z,44.42
2019-02-26T08:04:06.207Z,44.58
2019-02-26T08:05:05.572Z,46.86
2019-02-26T08:06:07.184Z,46.29
2019-02-26T08:07:05.547Z,46.39
2019-02-26T08:08:05.538Z,46.63
2019-02-26T08:09:07.058Z,44.54
2019-02-26T08:10:06.067Z,44.24
2019-02-26T08:11:05.500Z,42.07
2019-02-26T08:12:07.180Z,42.66
2019-02-26T08:13:06.262Z,41.91
2019-02-26T08:14:05.487Z,40.34
2019-02-26T08:15:07.972Z,39.83
2019-02-26T08:16:05.447Z,39.41
2019-02-26T08:17:06.306Z,39.61
2019-02-26T08:18:05.454Z,39.01
2019-02-26T08:19:05.435Z,38.71
2019-02-26T08:20:08.158Z,37.85
2019-02-26T08:21:05.399Z,38.11
2019-02-26T08:22:05.373Z,36.38
2019-02-26T08:23:05.364Z,36.90
2019-02-26T08:24:05.353Z,36.38
2019-02-26T08:25:05.362Z,36.16
2019-02-26T08:26:05.329Z,35.63
2019-02-26T08:27:06.062Z,36.11
2019-02-26T08:28:05.311Z,35.26
2019-02-26T08:29:07.422Z,34.14
2019-02-26T08:30:06.827Z,33.31
2019-02-26T08:31:05.426Z,32.70
2019-02-26T08:32:05.260Z,32.71
2019-02-26T08:33:07.217Z,32.79
2019-02-26T08:34:05.243Z,32.45
2019-02-26T08:35:05.246Z,30.68
2019-02-26T08:36:05.218Z,31.78
2019-02-26T08:37:05.205Z,31.18
2019-02-26T08:38:06.243Z,32.51
2019-02-26T08:39:05.182Z,33.23
2019-02-26T08:40:05.189Z,33.51
2019-02-26T08:41:05.160Z,32.06
2019-02-26T08:42:05.150Z,30.87
2019-02-26T08:43:05.144Z,31.55
2019-02-26T08:44:05.127Z,30.35
2019-02-26T08:45:05.132Z,31.59
2019-02-26T08:46:06.768Z,32.32
2019-02-26T08:47:08.668Z,33.47
2019-02-26T08:48:06.077Z,34.26
2019-02-26T08:49:08.296Z,32.41
2019-02-26T08:50:07.454Z,34.51
2019-02-26T08:51:06.119Z,34.12
2019-02-26T08:52:05.055Z,35.68
2019-02-26T08:53:05.024Z,37.71
2019-02-26T08:54:05.012Z,34.74
2019-02-26T08:55:07.094Z,35.19
2019-02-26T08:56:04.991Z,34.12
2019-02-26T08:57:04.981Z,31.65
2019-02-26T08:58:04.967Z,31.01
2019-02-26T08:59:04.958Z,30.08
2019-02-26T09:00:04.960Z,29.25
2019-02-26T09:01:04.934Z,28.64
2019-02-26T09:02:04.923Z,30.12
2019-02-26T09:03:04.911Z,30.32
2019-02-26T09:04:04.900Z,30.19
2019-02-26T09:05:06.832Z,29.75
2019-02-26T09:06:12.785Z,28.02
2019-02-26T09:07:05.867Z,28.09
2019-02-26T09:08:06.040Z,28.41
2019-02-26T09:09:06.785Z,27.98
2019-02-26T09:10:07.036Z,26.17
2019-02-26T09:11:06.275Z,25.90
2019-02-26T09:12:04.812Z,26.20
2019-02-26T09:13:06.328Z,26.42
2019-02-26T09:14:06.703Z,28.32
2019-02-26T09:15:04.776Z,27.70
2019-02-26T09:16:06.158Z,26.89
2019-02-26T09:17:04.806Z,25.48
2019-02-26T09:18:04.746Z,26.48
2019-02-26T09:19:04.736Z,26.49
2019-02-26T09:20:09.290Z,26.58
2019-02-26T09:21:07.153Z,26.34
2019-02-26T09:22:04.702Z,25.82
2019-02-26T09:23:04.691Z,25.10
2019-02-26T09:24:07.518Z,23.79
2019-02-26T09:25:04.670Z,24.18
2019-02-26T09:26:06.987Z,23.47
2019-02-26T09:27:05.122Z,22.80
2019-02-26T09:28:04.635Z,25.57
2019-02-26T09:29:04.628Z,26.20
2019-02-26T09:30:05.839Z,26.33
2019-02-26T09:31:06.664Z,26.40
2019-02-26T09:32:06.744Z,26.70
2019-02-26T09:33:06.388Z,28.43
2019-02-26T09:34:04.569Z,26.63
2019-02-26T09:35:04.898Z,26.49
2019-02-26T09:36:04.586Z,26.14
2019-02-26T09:37:05.740Z,23.54
2019-02-26T09:38:04.526Z,24.72
2019-02-26T09:39:05.894Z,24.65
2019-02-26T09:40:04.864Z,24.44
2019-02-26T09:41:04.504Z,24.80
2019-02-26T09:42:06.362Z,23.37
2019-02-26T09:43:06.063Z,22.78
2019-02-26T09:44:06.639Z,22.49
2019-02-26T09:45:04.447Z,22.66
2019-02-26T09:46:06.370Z,22.53
2019-02-26T09:47:05.377Z,21.63
2019-02-26T09:48:04.414Z,21.22
2019-02-26T09:49:05.090Z,20.21
2019-02-26T09:50:04.394Z,19.62
2019-02-26T09:51:04.887Z,19.60
2019-02-26T09:52:06.299Z,19.69
2019-02-26T09:53:04.363Z,19.69
2019-02-26T09:54:04.350Z,19.20
2019-02-26T09:55:04.341Z,18.60
2019-02-26T09:56:04.332Z,18.90
2019-02-26T09:57:04.340Z,18.90
2019-02-26T09:58:04.309Z,18.89
2019-02-26T09:59:05.183Z,19.38
2019-02-26T10:00:04.287Z,19.38
2019-02-26T10:01:06.266Z,18.99
2019-02-26T10:02:06.023Z,18.12
2019-02-26T10:03:07.449Z,18.52
2019-02-26T10:04:05.380Z,18.70
2019-02-26T10:05:06.218Z,18.82
2019-02-26T10:06:04.220Z,19.70
2019-02-26T10:07:06.620Z,19.30
2019-02-26T10:08:05.354Z,19.20
2019-02-26T10:09:04.193Z,19.59
2019-02-26T10:10:06.482Z,19.20
2019-02-26T10:11:04.917Z,19.41
2019-02-26T10:12:05.597Z,19.69
2019-02-26T10:13:04.747Z,18.79
2019-02-26T10:14:05.414Z,19.07
2019-02-26T10:15:05.293Z,17.79
2019-02-26T10:16:06.342Z,18.47
2019-02-26T10:17:04.107Z,18.21
2019-02-26T10:18:06.796Z,19.00
2019-02-26T10:19:05.082Z,19.40
2019-02-26T10:20:05.064Z,19.38
2019-02-26T10:21:05.958Z,19.57
2019-02-26T10:22:07.129Z,17.70
2019-02-26T10:23:06.346Z,18.79
2019-02-26T10:24:04.612Z,18.88
2019-02-26T10:25:04.019Z,17.90
2019-02-26T10:26:05.760Z,17.97
2019-02-26T10:27:05.990Z,17.68
2019-02-26T10:28:08.660Z,17.77
2019-02-26T10:29:05.987Z,18.44
2019-02-26T10:30:05.837Z,18.08
2019-02-26T10:31:06.802Z,19.67
2019-02-26T10:32:03.951Z,19.18
2019-02-26T10:33:03.979Z,18.58
2019-02-26T10:34:07.904Z,18.76
2019-02-26T10:35:06.445Z,17.97
2019-02-26T10:36:05.433Z,17.57
2019-02-26T10:37:03.898Z,17.76
2019-02-26T10:38:07.732Z,17.66
2019-02-26T10:39:03.892Z,17.76
2019-02-26T10:40:03.863Z,17.84
2019-02-26T10:41:05.131Z,18.05
2019-02-26T10:42:03.846Z,18.27
2019-02-26T10:43:03.841Z,17.96
2019-02-26T10:44:03.838Z,18.27
2019-02-26T10:45:03.810Z,18.17
2019-02-26T10:46:03.800Z,18.58
2019-02-26T10:47:05.768Z,18.70
2019-02-26T10:48:03.783Z,18.90
2019-02-26T10:49:03.786Z,18.52
2019-02-26T10:50:03.856Z,18.80
2019-02-26T10:51:06.472Z,19.62
2019-02-26T10:52:03.735Z,19.75
2019-02-26T10:53:09.810Z,20.17
2019-02-26T10:54:06.211Z,20.45
2019-02-26T10:55:03.707Z,20.94
2019-02-26T10:56:03.693Z,19.83
2019-02-26T10:57:07.485Z,19.62
2019-02-26T10:58:08.044Z,19.90
2019-02-26T10:59:08.610Z,19.18
2019-02-26T11:00:06.360Z,18.42
2019-02-26T11:01:05.259Z,20.44
2019-02-26T11:02:03.633Z,20.15
2019-02-26T11:03:03.621Z,19.82
2019-02-26T11:04:04.655Z,19.79
2019-02-26T11:05:03.636Z,18.60
2019-02-26T11:06:04.839Z,18.79
2019-02-26T11:07:04.940Z,18.60
2019-02-26T11:08:08.886Z,18.72
2019-02-26T11:09:04.575Z,18.72
2019-02-26T11:10:03.545Z,19.20
2019-02-26T11:11:04.788Z,19.57
2019-02-26T11:12:05.942Z,18.48
2019-02-26T11:13:03.513Z,18.26
2019-02-26T11:14:05.251Z,17.86
2019-02-26T11:15:04.980Z,17.86
2019-02-26T11:16:03.479Z,19.15
2019-02-26T11:17:03.476Z,18.18
2019-02-26T11:18:03.459Z,18.27
2019-02-26T11:19:04.378Z,18.65
2019-02-26T11:20:04.639Z,17.66
2019-02-26T11:21:03.429Z,18.24
2019-02-26T11:22:04.211Z,18.23
2019-02-26T11:23:06.013Z,17.66
2019-02-26T11:24:04.156Z,18.33
2019-02-26T11:25:03.390Z,18.33
2019-02-26T11:26:04.185Z,17.44
2019-02-26T11:27:03.381Z,18.63
2019-02-26T11:28:05.627Z,20.04
2019-02-26T11:29:03.362Z,19.15
2019-02-26T11:30:05.068Z,18.65
2019-02-26T11:31:03.343Z,17.76
2019-02-26T11:32:04.638Z,17.86
2019-02-26T11:33:06.076Z,18.34
2019-02-26T11:34:05.848Z,17.56
2019-02-26T11:35:03.279Z,18.85
2019-02-26T11:36:05.284Z,18.96
2019-02-26T11:37:08.466Z,19.06
2019-02-26T11:38:04.260Z,17.78
2019-02-26T11:39:05.079Z,17.68
2019-02-26T11:40:05.377Z,17.87
2019-02-26T11:41:03.218Z,17.68
2019-02-26T11:42:03.203Z,17.79
2019-02-26T11:43:11.097Z,18.66
2019-02-26T11:44:07.152Z,17.86
2019-02-26T11:45:06.668Z,17.46
2019-02-26T11:46:03.823Z,18.44
2019-02-26T11:47:03.155Z,18.07
2019-02-26T11:48:04.340Z,18.16
2019-02-26T11:49:03.150Z,17.38
2019-02-26T11:50:06.450Z,19.18
2019-02-26T11:51:03.111Z,18.29
2019-02-26T11:52:04.386Z,18.30
2019-02-26T11:53:03.087Z,17.90
2019-02-26T11:54:04.991Z,17.70
2019-02-26T11:55:05.942Z,18.37
2019-02-26T11:56:03.059Z,18.27
2019-02-26T11:57:04.586Z,18.26
2019-02-26T11:58:05.628Z,18.27
2019-02-26T11:59:06.544Z,17.97
2019-02-26T12:00:04.518Z,18.66
2019-02-26T12:01:03.007Z,19.28
2019-02-26T12:02:04.423Z,19.41
2019-02-26T12:03:02.985Z,19.30
2019-02-26T12:04:04.107Z,19.29
2019-02-26T12:05:05.432Z,19.28
2019-02-26T12:06:02.952Z,19.18
2019-02-26T12:07:04.139Z,18.89
2019-02-26T12:08:02.929Z,19.49
2019-02-26T12:09:05.476Z,19.89
2019-02-26T12:10:09.265Z,19.59
2019-02-26T12:11:06.492Z,18.94
2019-02-26T12:12:03.472Z,19.73
2019-02-26T12:13:02.878Z,20.51
2019-02-26T12:14:02.887Z,19.10
2019-02-26T12:15:04.425Z,18.79
2019-02-26T12:16:02.845Z,18.88
2019-02-26T12:17:02.833Z,19.10
2019-02-26T12:18:02.826Z,19.81
2019-02-26T12:19:04.042Z,20.41
2019-02-26T12:20:02.803Z,20.33
2019-02-26T12:21:05.197Z,20.73
2019-02-26T12:22:03.612Z,21.33
2019-02-26T12:23:02.771Z,20.42
2019-02-26T12:24:03.431Z,19.43
2019-02-26T12:25:07.977Z,20.51
2019-02-26T12:26:04.004Z,20.51
2019-02-26T12:27:02.727Z,18.32
2019-02-26T12:28:03.691Z,19.59
2019-02-26T12:29:04.443Z,19.59
2019-02-26T12:30:02.697Z,19.21
2019-02-26T12:31:04.347Z,19.13
2019-02-26T12:32:04.804Z,19.93
2019-02-26T12:33:02.664Z,21.45
2019-02-26T12:34:02.674Z,21.54
2019-02-26T12:35:03.413Z,20.33
2019-02-26T12:36:05.223Z,20.86
2019-02-26T12:37:05.891Z,21.36
2019-02-26T12:38:17.348Z,22.56
2019-02-26T12:39:03.615Z,23.07
2019-02-26T12:40:02.611Z,22.01
2019-02-26T12:41:02.594Z,23.00
2019-02-26T12:42:02.569Z,22.11
2019-02-26T12:43:05.501Z,21.68
2019-02-26T12:44:05.671Z,21.06
2019-02-26T12:45:06.715Z,20.64
2019-02-26T12:46:04.711Z,20.62
2019-02-26T12:47:03.509Z,19.22
2019-02-26T12:48:02.518Z,18.70
2019-02-26T12:49:05.139Z,18.91
2019-02-26T12:50:05.182Z,19.41
2019-02-26T12:51:04.839Z,19.22
2019-02-26T12:52:03.380Z,20.64